createdAt,value
2022-10-18T00:00:25.807Z,11.61
2022-10-18T00:02:53.472Z,11.58
2022-10-18T00:05:21.132Z,11.51
2022-10-18T00:07:48.737Z,11.45
2022-10-18T00:10:16.474Z,11.36
2022-10-18T00:15:14.382Z,11.35
2022-10-18T00:17:42.040Z,11.38
2022-10-18T00:20:10.900Z,11.36
2022-10-18T00:22:39.965Z,11.35
2022-10-18T00:25:09.258Z,11.36
2022-10-18T00:27:37.306Z,11.38
2022-10-18T00:30:07.645Z,11.38
2022-10-18T00:32:37.670Z,11.40
2022-10-18T00:35:06.434Z,11.37
2022-10-18T00:37:34.676Z,11.25
2022-10-18T00:40:02.844Z,11.18
2022-10-18T00:42:32.478Z,10.99
2022-10-18T00:45:20.133Z,10.86
2022-10-18T00:47:51.586Z,10.80
2022-10-18T00:50:20.708Z,10.75
2022-10-18T00:52:50.614Z,10.77
2022-10-18T00:55:18.854Z,10.75
2022-10-18T00:57:46.772Z,10.76
2022-10-18T01:00:15.992Z,10.78
2022-10-18T01:02:45.339Z,10.79
2022-10-18T01:05:14.342Z,10.74
2022-10-18T01:08:07.801Z,10.76
2022-10-18T01:10:43.507Z,10.75
2022-10-18T01:13:25.624Z,10.78
2022-10-18T01:15:59.252Z,10.75
2022-10-18T01:18:30.306Z,10.74
2022-10-18T01:21:10.369Z,10.71
2022-10-18T01:23:50.898Z,10.72
2022-10-18T01:26:29.062Z,10.70
2022-10-18T01:29:06.221Z,10.71
2022-10-18T01:31:39.313Z,10.71
2022-10-18T01:34:09.692Z,10.71
2022-10-18T01:36:39.419Z,10.70
2022-10-18T01:39:09.528Z,10.66
2022-10-18T01:41:38.659Z,10.65
2022-10-18T01:44:08.848Z,10.66
2022-10-18T01:46:38.567Z,10.62
2022-10-18T01:49:06.345Z,10.61
2022-10-18T01:51:34.583Z,10.63
2022-10-18T01:54:02.371Z,10.63
2022-10-18T01:56:36.541Z,10.67
2022-10-18T01:59:13.468Z,10.67
2022-10-18T02:01:49.523Z,10.65
2022-10-18T02:04:23.623Z,10.62
2022-10-18T02:06:56.445Z,10.55
2022-10-18T02:09:32.816Z,10.48
2022-10-18T02:12:01.340Z,10.34
2022-10-18T02:14:29.197Z,10.26
2022-10-18T02:16:59.801Z,10.26
2022-10-18T02:19:29.805Z,10.28
2022-10-18T02:21:58.773Z,10.25
2022-10-18T02:24:30.185Z,10.22
2022-10-18T02:26:57.970Z,10.23
2022-10-18T02:29:26.107Z,10.28
2022-10-18T02:31:59.743Z,10.30
2022-10-18T02:34:30.936Z,10.18
2022-10-18T02:37:00.033Z,10.10
2022-10-18T02:39:31.014Z,10.12
2022-10-18T02:41:59.565Z,10.12
2022-10-18T02:44:28.108Z,10.12
2022-10-18T02:46:55.863Z,10.09
2022-10-18T02:49:25.212Z,10.07
2022-10-18T02:51:52.919Z,10.10
2022-10-18T02:54:20.637Z,10.06
2022-10-18T02:56:48.253Z,10.06
2022-10-18T02:59:16.135Z,10.08
2022-10-18T03:01:43.987Z,10.08
2022-10-18T03:04:11.673Z,10.11
2022-10-18T03:06:40.820Z,10.16
2022-10-18T03:09:08.581Z,10.14
2022-10-18T03:11:36.299Z,10.13
2022-10-18T03:14:04.223Z,10.05
2022-10-18T03:16:31.918Z,10.03
2022-10-18T03:18:59.598Z,10.02
2022-10-18T03:21:27.328Z,9.97
2022-10-18T03:23:56.503Z,9.97
2022-10-18T03:26:24.137Z,10.00
2022-10-18T03:28:51.907Z,10.04
2022-10-18T03:31:19.852Z,10.06
2022-10-18T03:33:47.684Z,10.07
2022-10-18T03:36:15.493Z,10.10
2022-10-18T03:38:43.442Z,10.15
2022-10-18T03:41:12.561Z,10.18
2022-10-18T03:43:40.241Z,10.18
2022-10-18T03:46:08.021Z,10.17
2022-10-18T03:48:35.682Z,10.18
2022-10-18T03:51:03.343Z,10.23
2022-10-18T03:53:31.081Z,10.24
2022-10-18T03:55:58.784Z,10.26
2022-10-18T03:58:27.886Z,10.25
2022-10-18T04:00:56.182Z,10.24
2022-10-18T04:03:24.398Z,10.24
2022-10-18T04:05:52.146Z,10.24
2022-10-18T04:08:20.164Z,10.25
2022-10-18T04:10:48.061Z,10.26
2022-10-18T04:13:15.879Z,10.26
2022-10-18T04:15:45.671Z,10.26
2022-10-18T04:18:13.360Z,10.27
2022-10-18T04:20:41.032Z,10.28
2022-10-18T04:23:08.717Z,10.26
2022-10-18T04:25:36.476Z,10.20
2022-10-18T04:28:04.696Z,10.19
2022-10-18T04:30:32.387Z,10.22
2022-10-18T04:33:01.461Z,10.28
2022-10-18T04:35:29.117Z,10.33
2022-10-18T04:37:56.784Z,10.36
2022-10-18T04:40:24.575Z,10.38
2022-10-18T04:42:52.300Z,10.37
2022-10-18T04:45:19.975Z,10.38
2022-10-18T04:47:47.667Z,10.38
2022-10-18T04:50:16.984Z,10.43
2022-10-18T04:52:44.712Z,10.44
2022-10-18T04:55:12.480Z,10.43
2022-10-18T04:57:40.192Z,10.45
2022-10-18T05:00:08.553Z,10.48
2022-10-18T05:02:36.232Z,10.50
2022-10-18T05:05:04.745Z,10.50
2022-10-18T05:07:33.824Z,10.51
2022-10-18T05:10:01.488Z,10.59
2022-10-18T05:12:29.357Z,10.63
2022-10-18T05:14:57.500Z,10.67
2022-10-18T05:17:25.234Z,10.59
2022-10-18T05:19:52.885Z,10.56
2022-10-18T05:22:20.562Z,10.55
2022-10-18T05:24:49.599Z,10.54
2022-10-18T05:27:17.268Z,10.48
2022-10-18T05:29:44.936Z,10.49
2022-10-18T05:32:12.719Z,10.49
2022-10-18T05:34:40.511Z,10.55
2022-10-18T05:37:08.281Z,10.53
2022-10-18T05:39:35.983Z,10.58
2022-10-18T05:42:05.030Z,10.61
2022-10-18T05:44:32.765Z,10.66
2022-10-18T05:47:00.371Z,10.70
2022-10-18T05:49:28.205Z,10.78
2022-10-18T05:51:55.990Z,10.83
2022-10-18T05:54:23.690Z,10.89
2022-10-18T05:56:51.420Z,10.93
2022-10-18T05:59:20.457Z,10.93
2022-10-18T06:01:48.096Z,10.94
2022-10-18T06:04:17.816Z,10.96
2022-10-18T06:06:45.489Z,11.00
2022-10-18T06:09:13.173Z,11.02
2022-10-18T06:11:40.828Z,10.93
2022-10-18T06:14:08.956Z,10.96
2022-10-18T06:16:38.000Z,10.99
2022-10-18T06:19:05.834Z,11.02
2022-10-18T06:21:33.501Z,11.07
2022-10-18T06:24:01.671Z,11.11
2022-10-18T06:26:29.641Z,11.18
2022-10-18T06:28:57.706Z,11.22
2022-10-18T06:31:25.459Z,11.17
2022-10-18T06:33:54.573Z,11.15
2022-10-18T06:36:23.229Z,11.18
2022-10-18T06:38:51.248Z,11.20
2022-10-18T06:41:19.273Z,11.22
2022-10-18T06:43:49.758Z,11.26
2022-10-18T06:46:17.511Z,11.27
2022-10-18T06:48:45.228Z,11.27
2022-10-18T06:51:15.221Z,11.30
2022-10-18T06:53:53.453Z,11.34
2022-10-18T06:56:30.672Z,11.39
2022-10-18T07:01:31.053Z,11.43
2022-10-18T07:03:58.867Z,11.47
2022-10-18T07:06:28.009Z,11.45
2022-10-18T07:08:56.212Z,11.49
2022-10-18T07:11:26.002Z,11.56
2022-10-18T07:14:00.310Z,11.58
2022-10-18T07:16:28.203Z,11.60
2022-10-18T07:18:56.180Z,11.65
2022-10-18T07:21:25.440Z,11.71
2022-10-18T07:23:54.937Z,11.76
2022-10-18T07:26:25.249Z,11.80
2022-10-18T07:28:55.486Z,11.86
2022-10-18T07:31:23.583Z,11.97
2022-10-18T07:33:51.705Z,12.06
2022-10-18T07:36:21.187Z,12.17
2022-10-18T07:38:48.916Z,12.27
2022-10-18T07:41:17.960Z,12.37
2022-10-18T07:43:47.348Z,12.44
2022-10-18T07:46:16.174Z,12.51
2022-10-18T07:48:44.234Z,12.67
2022-10-18T07:51:12.354Z,12.77
2022-10-18T07:53:40.582Z,12.87
2022-10-18T07:56:11.890Z,13.02
2022-10-18T07:58:40.968Z,13.15
2022-10-18T08:01:09.781Z,13.30
2022-10-18T08:03:38.315Z,13.50
2022-10-18T08:06:09.045Z,13.73
2022-10-18T08:08:37.586Z,13.96
2022-10-18T08:11:06.876Z,14.21
2022-10-18T08:13:34.604Z,14.45
2022-10-18T08:16:05.075Z,14.69
2022-10-18T08:18:32.997Z,14.95
2022-10-18T08:21:00.805Z,15.25
2022-10-18T08:23:28.462Z,15.54
2022-10-18T08:25:56.398Z,15.82
2022-10-18T08:28:24.109Z,16.08
2022-10-18T08:30:51.780Z,16.30
2022-10-18T08:33:20.776Z,16.52
2022-10-18T08:35:56.052Z,16.67
2022-10-18T08:38:23.680Z,16.80
2022-10-18T08:40:51.435Z,16.97
2022-10-18T08:43:25.970Z,17.17
2022-10-18T08:45:54.898Z,17.33
2022-10-18T08:48:28.648Z,17.56
2022-10-18T08:50:57.602Z,17.75
2022-10-18T08:53:28.837Z,17.86
2022-10-18T08:55:59.178Z,18.00
2022-10-18T08:58:30.828Z,18.23
2022-10-18T09:01:05.468Z,18.38
2022-10-18T09:03:51.942Z,18.53
2022-10-18T09:06:23.622Z,18.69
2022-10-18T09:09:02.618Z,18.82
2022-10-18T09:11:42.953Z,18.86
2022-10-18T09:14:30.004Z,18.90
2022-10-18T09:17:05.128Z,18.91
2022-10-18T09:19:55.219Z,18.96
2022-10-18T09:22:26.835Z,18.98
2022-10-18T09:25:03.534Z,18.98
2022-10-18T09:27:37.098Z,19.01
2022-10-18T09:30:09.089Z,19.04
2022-10-18T09:32:46.775Z,19.06
2022-10-18T09:35:18.273Z,19.04
2022-10-18T09:37:46.526Z,19.06
2022-10-18T09:40:19.015Z,19.15
2022-10-18T09:42:54.183Z,19.15
2022-10-18T09:45:29.082Z,19.18
2022-10-18T09:48:04.479Z,19.23
2022-10-18T09:50:38.463Z,19.25
2022-10-18T09:53:13.169Z,19.25
2022-10-18T09:55:45.853Z,19.28
2022-10-18T09:58:14.900Z,19.42
2022-10-18T10:00:49.692Z,19.46
2022-10-18T10:03:17.340Z,19.47
2022-10-18T10:05:46.499Z,19.55
2022-10-18T10:08:14.165Z,19.64
2022-10-18T10:10:48.035Z,19.60
2022-10-18T10:13:22.127Z,19.81
2022-10-18T10:15:54.449Z,19.99
2022-10-18T10:18:23.145Z,20.12
2022-10-18T10:20:53.908Z,20.18
2022-10-18T10:23:23.088Z,20.38
2022-10-18T10:25:53.679Z,20.52
2022-10-18T10:28:23.469Z,20.71
2022-10-18T10:30:51.690Z,20.85
2022-10-18T10:33:35.012Z,21.11
2022-10-18T10:36:07.950Z,21.27
2022-10-18T10:38:35.631Z,21.28
2022-10-18T10:41:03.276Z,21.50
2022-10-18T10:43:37.695Z,21.51
2022-10-18T10:46:09.057Z,21.58
2022-10-18T10:48:53.768Z,21.68
2022-10-18T10:51:31.947Z,21.84
2022-10-18T10:54:01.769Z,21.92
2022-10-18T10:56:31.426Z,22.11
2022-10-18T10:59:07.717Z,22.29
2022-10-18T11:01:36.403Z,22.42
2022-10-18T11:04:23.059Z,22.60
2022-10-18T11:06:58.999Z,22.77
2022-10-18T11:09:38.205Z,22.91
2022-10-18T11:12:14.779Z,22.97
2022-10-18T11:14:45.517Z,23.02
2022-10-18T11:17:19.254Z,23.03
2022-10-18T11:20:09.657Z,23.06
2022-10-18T11:22:43.324Z,23.18
2022-10-18T11:25:14.560Z,23.35
2022-10-18T11:27:44.301Z,23.12
2022-10-18T11:30:32.276Z,23.07
2022-10-18T11:33:06.695Z,23.25
2022-10-18T11:35:40.523Z,23.22
2022-10-18T11:38:19.398Z,23.47
2022-10-18T11:40:55.220Z,23.55
2022-10-18T11:43:30.217Z,23.59
2022-10-18T11:46:02.137Z,23.58
2022-10-18T11:48:43.504Z,23.55
2022-10-18T11:51:16.002Z,23.61
2022-10-18T11:53:52.115Z,23.77
2022-10-18T11:56:25.129Z,23.86
2022-10-18T11:59:07.453Z,23.97
2022-10-18T12:01:40.590Z,23.95
2022-10-18T12:04:11.477Z,23.61
2022-10-18T12:06:41.299Z,23.23
2022-10-18T12:09:17.670Z,23.19
2022-10-18T12:11:50.216Z,23.33
2022-10-18T12:14:27.133Z,23.62
2022-10-18T12:17:20.379Z,23.62
2022-10-18T12:19:45.727Z,23.88
2022-10-18T12:22:15.958Z,24.12
2022-10-18T12:24:44.992Z,23.84
2022-10-18T12:27:14.971Z,23.75
2022-10-18T12:29:50.699Z,23.58
2022-10-18T12:32:21.200Z,23.53
2022-10-18T12:34:51.204Z,23.27
2022-10-18T12:37:33.541Z,23.23
2022-10-18T12:40:10.187Z,23.35
2022-10-18T12:42:44.059Z,23.41
2022-10-18T12:45:25.412Z,23.43
2022-10-18T12:47:53.268Z,23.50
2022-10-18T12:50:30.103Z,23.35
2022-10-18T12:53:08.010Z,23.05
2022-10-18T12:55:40.847Z,23.21
2022-10-18T12:58:27.158Z,23.40
2022-10-18T13:00:57.329Z,23.36
2022-10-18T13:03:53.963Z,23.44
2022-10-18T13:06:22.499Z,23.40
2022-10-18T13:09:22.011Z,23.33
2022-10-18T13:11:49.834Z,23.36
2022-10-18T13:14:35.436Z,22.92
2022-10-18T13:17:19.730Z,22.98
2022-10-18T13:20:20.467Z,23.13
2022-10-18T13:22:55.222Z,23.31
2022-10-18T13:25:28.580Z,23.24
2022-10-18T13:28:00.396Z,23.02
2022-10-18T13:30:32.683Z,23.06
2022-10-18T13:33:09.514Z,22.86
2022-10-18T13:35:58.353Z,22.68
2022-10-18T13:38:50.465Z,22.66
2022-10-18T13:41:21.399Z,22.72
2022-10-18T13:44:12.349Z,22.66
2022-10-18T13:47:13.850Z,22.68
2022-10-18T13:49:55.982Z,22.62
2022-10-18T13:52:34.433Z,22.51
2022-10-18T13:55:13.877Z,22.49
2022-10-18T13:57:48.917Z,22.41
2022-10-18T14:00:37.562Z,22.47
2022-10-18T14:03:55.678Z,22.43
2022-10-18T14:06:19.281Z,22.31
2022-10-18T14:08:50.408Z,22.31
2022-10-18T14:11:26.181Z,22.24
2022-10-18T14:13:57.152Z,22.11
2022-10-18T14:16:32.087Z,22.06
2022-10-18T14:19:06.390Z,21.84
2022-10-18T14:21:38.585Z,21.79
2022-10-18T14:24:16.056Z,21.81
2022-10-18T14:26:43.670Z,21.89
2022-10-18T14:29:18.066Z,21.94
2022-10-18T14:31:52.882Z,21.91
2022-10-18T14:34:20.532Z,21.92
2022-10-18T14:36:49.798Z,21.87
2022-10-18T14:39:21.074Z,21.78
2022-10-18T14:41:50.448Z,21.72
2022-10-18T14:44:21.538Z,21.68
2022-10-18T14:46:50.740Z,21.69
2022-10-18T14:49:19.159Z,21.61
2022-10-18T14:51:49.250Z,21.34
2022-10-18T14:54:19.362Z,21.22
2022-10-18T14:56:47.184Z,21.27
2022-10-18T14:59:19.977Z,21.35
2022-10-18T15:01:53.820Z,21.32
2022-10-18T15:04:26.279Z,21.21
2022-10-18T15:06:56.245Z,21.26
2022-10-18T15:09:24.795Z,21.17
2022-10-18T15:11:54.731Z,21.08
2022-10-18T15:14:23.970Z,20.97
2022-10-18T15:16:51.801Z,20.82
2022-10-18T15:19:30.739Z,20.88
2022-10-18T15:22:30.229Z,20.95
2022-10-18T15:25:07.637Z,20.90
2022-10-18T15:27:37.473Z,20.89
2022-10-18T15:30:11.063Z,20.88
2022-10-18T15:32:40.340Z,20.72
2022-10-18T15:35:09.755Z,20.75
2022-10-18T15:37:39.263Z,20.71
2022-10-18T15:40:33.086Z,20.69
2022-10-18T15:43:03.420Z,20.65
2022-10-18T15:45:38.241Z,20.59
2022-10-18T15:48:21.153Z,20.51
2022-10-18T15:50:50.407Z,20.48
2022-10-18T15:53:37.848Z,20.47
2022-10-18T15:56:07.303Z,20.46
2022-10-18T15:58:45.286Z,20.44
2022-10-18T16:01:19.646Z,20.33
2022-10-18T16:03:48.038Z,20.30
2022-10-18T16:06:18.225Z,20.23
2022-10-18T16:08:50.966Z,20.14
2022-10-18T16:11:20.489Z,19.97
2022-10-18T16:13:48.808Z,19.72
2022-10-18T16:16:20.466Z,19.41
2022-10-18T16:18:48.731Z,19.32
2022-10-18T16:21:20.725Z,19.17
2022-10-18T16:23:48.523Z,19.01
2022-10-18T16:26:17.309Z,18.95
2022-10-18T16:28:45.823Z,19.01
2022-10-18T16:31:18.956Z,18.69
2022-10-18T16:33:46.908Z,18.61
2022-10-18T16:36:15.938Z,18.68
2022-10-18T16:38:44.039Z,18.72
2022-10-18T16:41:13.274Z,18.65
2022-10-18T16:43:41.231Z,18.51
2022-10-18T16:46:10.899Z,18.56
2022-10-18T16:48:40.111Z,18.64
2022-10-18T16:51:07.879Z,18.57
2022-10-18T16:53:35.578Z,18.51
2022-10-18T16:56:04.778Z,18.50
2022-10-18T16:58:34.259Z,18.48
2022-10-18T17:01:04.167Z,18.40
2022-10-18T17:03:34.564Z,18.35
2022-10-18T17:06:03.853Z,18.31
2022-10-18T17:08:31.564Z,18.29
2022-10-18T17:11:01.716Z,18.30
2022-10-18T17:13:29.536Z,18.27
2022-10-18T17:15:57.210Z,18.21
2022-10-18T17:18:27.578Z,18.19
2022-10-18T17:20:56.545Z,18.16
2022-10-18T17:23:25.662Z,18.12
2022-10-18T17:26:05.292Z,18.07
2022-10-18T17:28:38.378Z,18.05
2022-10-18T17:31:07.415Z,18.06
2022-10-18T17:33:35.081Z,18.03
2022-10-18T17:36:02.859Z,18.03
2022-10-18T17:38:31.971Z,17.97
2022-10-18T17:40:59.917Z,17.91
2022-10-18T17:43:28.849Z,17.89
2022-10-18T17:45:57.321Z,17.86
2022-10-18T17:48:25.547Z,17.87
2022-10-18T17:50:53.264Z,17.89
2022-10-18T17:53:22.892Z,17.63
2022-10-18T17:55:52.041Z,17.50
2022-10-18T17:58:19.660Z,17.47
2022-10-18T18:00:47.295Z,17.52
2022-10-18T18:03:14.990Z,17.57
2022-10-18T18:05:42.703Z,17.57
2022-10-18T18:08:10.340Z,17.58
2022-10-18T18:10:38.060Z,17.63
2022-10-18T18:13:07.135Z,17.63
2022-10-18T18:15:34.777Z,17.63
2022-10-18T18:18:02.475Z,17.67
2022-10-18T18:20:30.150Z,17.70
2022-10-18T18:22:57.874Z,17.69
2022-10-18T18:25:25.519Z,17.69
2022-10-18T18:27:53.158Z,17.67
2022-10-18T18:30:23.109Z,17.63
2022-10-18T18:32:50.717Z,17.57
2022-10-18T18:35:18.570Z,17.47
2022-10-18T18:37:46.258Z,17.33
2022-10-18T18:40:13.938Z,17.29
2022-10-18T18:42:41.609Z,17.17
2022-10-18T18:45:09.521Z,17.01
2022-10-18T18:47:39.683Z,16.95
2022-10-18T18:50:08.228Z,16.90
2022-10-18T18:52:36.094Z,16.79
2022-10-18T18:55:03.962Z,16.78
2022-10-18T18:57:31.891Z,16.76
2022-10-18T18:59:59.739Z,16.78
2022-10-18T19:02:27.458Z,16.65
2022-10-18T19:04:56.483Z,16.56
2022-10-18T19:07:24.124Z,16.54
2022-10-18T19:09:52.099Z,16.49
2022-10-18T19:12:21.313Z,16.41
2022-10-18T19:14:49.107Z,16.39
2022-10-18T19:17:16.814Z,16.33
2022-10-18T19:19:44.783Z,16.24
2022-10-18T19:22:13.930Z,16.25
2022-10-18T19:24:41.616Z,16.27
2022-10-18T19:27:12.402Z,16.08
2022-10-18T19:29:41.374Z,16.00
2022-10-18T19:32:12.037Z,15.89
2022-10-18T19:34:40.440Z,15.89
2022-10-18T19:37:09.396Z,15.95
2022-10-18T19:39:38.815Z,15.92
2022-10-18T19:42:08.909Z,15.88
2022-10-18T19:44:37.815Z,15.82
2022-10-18T19:47:06.220Z,15.66
2022-10-18T19:49:34.240Z,15.61
2022-10-18T19:52:01.886Z,15.54
2022-10-18T19:54:29.751Z,15.53
2022-10-18T19:56:58.904Z,15.54
2022-10-18T19:59:27.217Z,15.60
2022-10-18T20:01:55.023Z,15.64
2022-10-18T20:04:22.797Z,15.62
2022-10-18T20:06:50.519Z,15.60
2022-10-18T20:09:20.644Z,15.55
2022-10-18T20:11:48.654Z,15.53
2022-10-18T20:14:17.770Z,15.52
2022-10-18T20:16:45.453Z,15.49
2022-10-18T20:19:13.171Z,15.41
2022-10-18T20:21:40.886Z,15.30
2022-10-18T20:24:09.298Z,15.24
2022-10-18T20:26:37.056Z,15.25
2022-10-18T20:29:05.371Z,15.26
2022-10-18T20:31:38.275Z,15.29
2022-10-18T20:34:07.881Z,15.33
2022-10-18T20:36:35.974Z,15.28
2022-10-18T20:39:04.960Z,15.19
2022-10-18T20:41:34.023Z,15.15
2022-10-18T20:44:03.059Z,15.04
2022-10-18T20:46:33.417Z,14.97
2022-10-18T20:49:03.308Z,14.97
2022-10-18T20:51:30.930Z,14.99
2022-10-18T20:53:58.895Z,14.97
2022-10-18T20:56:27.440Z,14.91
2022-10-18T20:58:57.096Z,14.92
2022-10-18T21:01:26.358Z,14.96
2022-10-18T21:03:55.490Z,15.02
2022-10-18T21:06:25.799Z,15.01
2022-10-18T21:08:54.378Z,14.99
2022-10-18T21:11:22.155Z,15.02
2022-10-18T21:13:53.209Z,15.04
2022-10-18T21:16:21.160Z,15.00
2022-10-18T21:18:49.778Z,15.01
2022-10-18T21:21:18.770Z,14.98
2022-10-18T21:23:48.522Z,14.88
2022-10-18T21:26:17.725Z,14.82
2022-10-18T21:28:46.022Z,14.79
2022-10-18T21:31:15.920Z,14.77
2022-10-18T21:33:44.196Z,14.76
2022-10-18T21:36:12.608Z,14.77
2022-10-18T21:38:40.402Z,14.74
2022-10-18T21:41:13.328Z,14.70
2022-10-18T21:43:42.202Z,14.69
2022-10-18T21:46:10.964Z,14.68
2022-10-18T21:48:39.126Z,14.66
2022-10-18T21:51:08.373Z,14.65
2022-10-18T21:53:36.753Z,14.62
2022-10-18T21:56:06.872Z,14.63
2022-10-18T21:58:36.192Z,14.62
2022-10-18T22:01:08.132Z,14.64
2022-10-18T22:03:36.405Z,14.64
2022-10-18T22:06:07.503Z,14.63
2022-10-18T22:08:35.513Z,14.62
2022-10-18T22:11:04.068Z,14.65
2022-10-18T22:13:31.915Z,14.68
2022-10-18T22:16:02.832Z,14.71
2022-10-18T22:18:30.984Z,14.73
2022-10-18T22:21:00.946Z,14.75
2022-10-18T22:23:32.395Z,14.74
2022-10-18T22:26:03.574Z,14.74
2022-10-18T22:28:31.251Z,14.75
2022-10-18T22:30:59.124Z,14.78
2022-10-18T22:33:28.167Z,14.80
2022-10-18T22:35:55.808Z,14.81
2022-10-18T22:38:23.446Z,14.81
2022-10-18T22:40:51.820Z,14.80
2022-10-18T22:43:19.478Z,14.79
2022-10-18T22:45:47.090Z,14.78
2022-10-18T22:48:14.773Z,14.74
2022-10-18T22:50:43.774Z,14.72
2022-10-18T22:53:11.455Z,14.69
2022-10-18T22:55:39.147Z,14.62
2022-10-18T22:58:06.813Z,14.61
2022-10-18T23:00:34.549Z,14.65
2022-10-18T23:03:02.237Z,14.65
2022-10-18T23:05:29.877Z,14.64
2022-10-18T23:07:58.915Z,14.62
2022-10-18T23:10:26.600Z,14.59
2022-10-18T23:12:54.228Z,14.55
2022-10-18T23:15:21.852Z,14.54
2022-10-18T23:17:50.057Z,14.49
2022-10-18T23:20:17.726Z,14.43
2022-10-18T23:22:45.399Z,14.30
2022-10-18T23:25:14.578Z,14.30
2022-10-18T23:30:12.032Z,14.30
2022-10-18T23:32:40.250Z,14.18
2022-10-18T23:35:08.521Z,14.17
2022-10-18T23:37:36.648Z,14.07
2022-10-18T23:40:04.942Z,13.98
2022-10-18T23:42:34.050Z,13.83
2022-10-18T23:45:01.697Z,13.77
2022-10-18T23:47:29.468Z,13.86
2022-10-18T23:49:58.850Z,13.92
2022-10-18T23:52:26.516Z,13.96
2022-10-18T23:54:54.125Z,13.97
2022-10-18T23:57:21.794Z,13.95
2022-10-18T23:59:50.744Z,13.88
